Time;durP1;ratioP1;P1;durP2;ratioP2;P2;SDS_P1;SDS_P2;PMS_P1;PMS_P2;Temp;Humidity;BMP_temperature;BMP_pressure;BME280_temperature;BME280_humidity;BME280_pressure;Samples;Min_cycle;Max_cycle;Signal;HPM_P1;HPM_P2
2021/12/17 00:00:09;;;;;;;;;;;;;;;8.46;94.27;103255.41;4932183;28;20109;-81
2021/12/17 00:03:19;;;;;;;;;;;;;;;8.47;93.78;103262.38;4929006;28;20021;-80
2021/12/17 00:05:42;;;;;;;;;;;;;;;8.40;93.94;103256.47;4930344;28;20075;-81
2021/12/17 00:08:07;;;;;;;;;;;;;;;8.42;93.94;103251.13;4915870;28;19908;-80
2021/12/17 00:10:32;;;;;;;;;;;;;;;8.38;94.32;103260.09;4930398;28;20524;-80
2021/12/17 00:12:57;;;;;;;;;;;;;;;8.44;94.41;103262.47;4936911;28;20331;-80
2021/12/17 00:15:23;;;;;;;;;;;;;;;8.45;93.88;103250.16;4931880;28;19942;-79
2021/12/17 00:17:55;;;;;;;;;;;;;;;8.36;94.38;103252.22;4929577;28;20154;-80
2021/12/17 00:40:22;;;;;;;;;;;;;;;8.40;94.43;103237.13;4946251;28;19927;-82
2021/12/17 00:52:56;;;;;;;;;;;;;;;8.38;94.54;103238.97;4926608;28;20714;-79
2021/12/17 00:55:22;;;;;;;;;;;;;;;8.38;94.34;103241.63;4904547;28;19920;-79
2021/12/17 00:57:47;;;;;;;;;;;;;;;8.41;94.00;103236.22;4915364;28;19977;-79
2021/12/17 01:00:13;;;;;;;;;;;;;;;8.36;94.12;103222.34;4908758;28;19908;-80
2021/12/17 01:02:39;;;;;;;;;;;;;;;8.44;93.79;103230.81;4928332;28;20592;-81
2021/12/17 01:05:06;;;;;;;;;;;;;;;8.43;93.64;103231.72;4928785;28;20589;-79
2021/12/17 01:07:32;;;;;;;;;;;;;;;8.39;94.13;103223.09;4952662;27;19911;-79
2021/12/17 01:09:57;;;;;;;;;;;;;;;8.37;94.04;103217.00;4930185;28;19903;-79
2021/12/17 01:12:22;;;;;;;;;;;;;;;8.41;94.16;103215.09;4922612;28;19988;-79
2021/12/17 01:14:48;;;;;;;;;;;;;;;8.39;93.72;103220.44;4918764;28;19908;-79
2021/12/17 01:17:13;;;;;;;;;;;;;;;8.39;93.86;103214.28;4941413;28;20370;-80
2021/12/17 01:20:14;;;;;;;;;;;;;;;8.38;93.93;103215.22;4944911;28;20168;-81
2021/12/17 01:25:35;;;;;;;;;;;;;;;8.24;94.05;103199.94;4935752;27;20025;-80
2021/12/17 01:36:16;;;;;;;;;;;;;;;8.20;94.88;103208.91;4942440;28;20798;-80
2021/12/17 01:44:10;;;;;;;;;;;;;;;8.26;94.52;103213.91;4967732;28;19929;-80
2021/12/17 01:46:35;;;;;;;;;;;;;;;8.26;94.93;103219.19;4955116;28;20354;-80
2021/12/17 01:49:23;;;;;;;;;;;;;;;8.26;94.15;103221.84;4950809;28;20020;-80
2021/12/17 01:59:49;;;;;;;;;;;;;;;8.15;94.64;103238.09;4931291;28;19952;-79
2021/12/17 02:02:15;;;;;;;;;;;;;;;8.15;95.29;103238.09;4939139;27;19900;-80
2021/12/17 02:04:41;;;;;;;;;;;;;;;8.25;95.19;103233.34;4943182;28;19932;-80
2021/12/17 02:07:06;;;;;;;;;;;;;;;8.27;94.93;103225.34;4919964;28;19904;-80
2021/12/17 02:20:40;;;;;;;;;;;;;;;8.31;94.26;103229.59;4953442;27;20707;-80
2021/12/17 02:28:50;;;;;;;;;;;;;;;8.36;94.41;103240.81;4968116;27;20390;-80
2021/12/17 02:33:44;;;;;;;;;;;;;;;8.31;94.21;103235.72;4933324;27;20151;-80
2021/12/17 02:36:09;;;;;;;;;;;;;;;8.35;93.92;103233.81;4914570;28;20351;-79
2021/12/17 02:38:38;;;;;;;;;;;;;;;8.41;94.06;103236.22;4925838;27;20456;-79
2021/12/17 02:46:34;;;;;;;;;;;;;;;8.32;93.67;103231.28;4956609;27;19969;-80
2021/12/17 02:48:59;;;;;;;;;;;;;;;8.29;94.46;103232.28;4956773;27;20104;-81
2021/12/17 02:51:24;;;;;;;;;;;;;;;8.33;94.59;103230.38;4938403;27;20310;-80
2021/12/17 02:53:50;;;;;;;;;;;;;;;8.37;94.17;103229.34;4938646;27;20386;-80
2021/12/17 02:56:15;;;;;;;;;;;;;;;8.38;93.79;103225.78;4940536;27;20418;-80
2021/12/17 02:58:41;;;;;;;;;;;;;;;8.40;93.92;103226.56;4958472;27;20421;-80
2021/12/17 03:01:07;;;;;;;;;;;;;;;8.33;93.69;103230.38;4944996;27;19899;-80
2021/12/17 03:03:34;;;;;;;;;;;;;;;8.27;94.18;103223.56;4982745;27;19903;-80
2021/12/17 03:05:59;;;;;;;;;;;;;;;8.33;94.00;103225.94;4987222;27;20038;-80
2021/12/17 03:08:24;;;;;;;;;;;;;;;8.33;94.17;103219.81;4982457;27;20170;-80
2021/12/17 03:10:50;;;;;;;;;;;;;;;8.40;93.66;103221.28;4965904;28;20324;-80
2021/12/17 03:13:16;;;;;;;;;;;;;;;8.31;93.74;103224.31;4966140;27;20148;-80
2021/12/17 03:26:02;;;;;;;;;;;;;;;8.32;94.19;103212.81;4961698;27;20035;-81
2021/12/17 03:28:28;;;;;;;;;;;;;;;8.31;93.99;103219.03;4958893;27;20013;-81
2021/12/17 03:30:53;;;;;;;;;;;;;;;8.20;94.16;103209.75;4945598;27;20273;-80
2021/12/17 03:33:19;;;;;;;;;;;;;;;8.16;94.64;103212.56;4967509;27;20351;-81
2021/12/17 03:35:45;;;;;;;;;;;;;;;8.16;94.75;103208.16;4941162;27;20288;-80
2021/12/17 03:38:10;;;;;;;;;;;;;;;8.14;95.06;103210.00;4957381;27;19899;-79
2021/12/17 03:40:35;;;;;;;;;;;;;;;8.21;94.67;103208.84;4951595;28;19916;-80
2021/12/17 03:43:04;;;;;;;;;;;;;;;8.23;94.74;103201.75;4948020;28;19943;-80
2021/12/17 03:45:29;;;;;;;;;;;;;;;8.15;94.96;103200.28;4931147;28;19908;-79
2021/12/17 03:47:54;;;;;;;;;;;;;;;8.17;94.57;103206.38;4936875;28;19927;-79
2021/12/17 03:50:20;;;;;;;;;;;;;;;8.20;94.70;103216.81;4950049;28;19911;-79
2021/12/17 03:52:45;;;;;;;;;;;;;;;8.15;95.23;103216.13;4933347;28;20413;-79
2021/12/17 03:55:10;;;;;;;;;;;;;;;8.21;94.64;103208.00;4932437;28;20377;-80
2021/12/17 03:57:36;;;;;;;;;;;;;;;8.24;94.58;103216.63;4931128;27;20318;-79
2021/12/17 04:00:03;;;;;;;;;;;;;;;8.29;94.44;103207.66;4937625;27;20319;-79
2021/12/17 04:02:29;;;;;;;;;;;;;;;8.24;94.68;103208.72;4948472;27;19918;-80
2021/12/17 04:04:54;;;;;;;;;;;;;;;8.21;94.46;103216.75;4937386;27;20262;-80
2021/12/17 04:07:19;;;;;;;;;;;;;;;8.19;94.51;103208.06;4955823;27;20759;-80
2021/12/17 04:09:44;;;;;;;;;;;;;;;8.19;94.85;103200.13;4937425;27;20258;-79
2021/12/17 04:12:14;;;;;;;;;;;;;;;8.22;95.01;103207.03;4950051;28;20722;-79
2021/12/17 04:14:46;;;;;;;;;;;;;;;8.29;94.30;103205.03;4933981;28;19956;-79
2021/12/17 04:17:12;;;;;;;;;;;;;;;8.28;94.29;103213.84;4935471;28;19908;-80
2021/12/17 04:19:38;;;;;;;;;;;;;;;8.27;94.14;103215.66;4915924;28;20861;-78
2021/12/17 04:22:03;;;;;;;;;;;;;;;8.22;94.02;103213.19;4930246;28;20229;-80
2021/12/17 04:24:28;;;;;;;;;;;;;;;8.17;94.08;103204.59;4897777;28;19924;-79
2021/12/17 04:26:54;;;;;;;;;;;;;;;8.13;94.45;103202.16;4925849;28;19953;-79
2021/12/17 04:29:21;;;;;;;;;;;;;;;8.10;95.07;103208.41;4945045;28;19949;-79
2021/12/17 04:31:52;;;;;;;;;;;;;;;8.04;94.96;103209.50;4947997;28;19979;-79
2021/12/17 04:34:18;;;;;;;;;;;;;;;8.11;95.21;103214.53;4956932;27;19908;-79
2021/12/17 04:36:44;;;;;;;;;;;;;;;8.17;95.39;103207.25;4937896;27;19995;-80
2021/12/17 04:39:10;;;;;;;;;;;;;;;8.19;94.77;103213.31;4935717;27;20470;-80
2021/12/17 04:41:48;;;;;;;;;;;;;;;8.14;94.58;103210.00;4960326;27;19991;-80
2021/12/17 04:46:46;;;;;;;;;;;;;;;8.19;94.74;103218.59;4950193;27;20014;-80
2021/12/17 04:57:32;;;;;;;;;;;;;;;8.19;94.20;103215.09;4949379;27;20463;-80
2021/12/17 05:00:00;;;;;;;;;;;;;;;8.15;94.91;103217.00;4946136;27;19984;-80
2021/12/17 05:02:26;;;;;;;;;;;;;;;8.05;95.25;103207.72;4907452;28;20032;-79
2021/12/17 05:04:53;;;;;;;;;;;;;;;8.04;95.08;103211.28;4923427;28;20296;-80
2021/12/17 05:07:18;;;;;;;;;;;;;;;8.02;95.35;103219.25;4946756;28;19908;-79
2021/12/17 05:09:55;;;;;;;;;;;;;;;8.03;95.69;103215.69;4936134;28;19941;-79
2021/12/17 05:20:44;;;;;;;;;;;;;;;8.15;95.19;103210.84;4910179;28;20652;-80
2021/12/17 05:23:09;;;;;;;;;;;;;;;8.11;95.36;103209.25;4929370;28;20381;-82
2021/12/17 05:25:35;;;;;;;;;;;;;;;8.14;95.02;103217.91;4925212;28;19907;-82
2021/12/17 05:28:02;;;;;;;;;;;;;;;8.15;94.99;103211.72;4936512;28;19904;-81
2021/12/17 05:30:27;;;;;;;;;;;;;;;8.14;95.13;103212.63;4939270;27;20020;-80
2021/12/17 05:32:53;;;;;;;;;;;;;;;8.09;94.88;103206.66;4946333;27;19904;-80
2021/12/17 05:35:18;;;;;;;;;;;;;;;8.08;95.04;103208.47;4958440;27;19927;-80
2021/12/17 05:37:43;;;;;;;;;;;;;;;8.08;94.91;103200.56;4920730;28;19953;-82
2021/12/17 05:40:09;;;;;;;;;;;;;;;8.17;94.73;103201.97;4905279;27;19903;-82
2021/12/17 05:42:34;;;;;;;;;;;;;;;8.11;94.25;103210.13;4933245;28;19912;-82
2021/12/17 05:45:08;;;;;;;;;;;;;;;8.20;94.46;103209.75;4909139;27;20065;-80
2021/12/17 05:47:33;;;;;;;;;;;;;;;8.19;94.13;103202.78;4904658;27;19924;-81
2021/12/17 05:49:58;;;;;;;;;;;;;;;8.19;93.91;103201.91;4928440;27;19937;-78
2021/12/17 05:52:23;;;;;;;;;;;;;;;8.22;93.93;103192.09;4925784;27;19914;-81
2021/12/17 05:54:49;;;;;;;;;;;;;;;8.11;93.66;103191.66;4932497;27;20345;-79
2021/12/17 05:57:14;;;;;;;;;;;;;;;8.11;94.10;103194.31;4918305;27;20704;-80
2021/12/17 05:59:39;;;;;;;;;;;;;;;8.10;94.36;103200.50;4924969;27;19981;-79
2021/12/17 06:02:10;;;;;;;;;;;;;;;8.12;94.17;103205.69;4911135;28;20320;-81
2021/12/17 06:04:35;;;;;;;;;;;;;;;8.17;94.24;103209.88;4922653;27;20447;-79
2021/12/17 06:07:00;;;;;;;;;;;;;;;8.18;94.07;103206.31;4948076;27;20371;-80
2021/12/17 06:09:26;;;;;;;;;;;;;;;8.17;94.10;103201.13;4943107;28;20461;-80
2021/12/17 06:11:51;;;;;;;;;;;;;;;8.22;94.11;103201.78;4910673;27;20283;-82
2021/12/17 06:14:16;;;;;;;;;;;;;;;8.21;93.73;103200.06;4912760;28;20406;-81
2021/12/17 06:16:41;;;;;;;;;;;;;;;8.20;93.72;103199.19;4945230;27;20193;-81
2021/12/17 06:19:07;;;;;;;;;;;;;;;8.17;93.48;103207.25;4934148;28;20033;-80
2021/12/17 06:21:32;;;;;;;;;;;;;;;8.18;93.93;103205.44;4934003;27;20228;-80
2021/12/17 06:23:58;;;;;;;;;;;;;;;8.15;93.89;103206.44;4958692;27;19978;-80
2021/12/17 06:26:24;;;;;;;;;;;;;;;8.17;94.15;103204.59;4955414;27;19915;-80
2021/12/17 06:28:49;;;;;;;;;;;;;;;8.12;93.83;103206.53;4951672;27;19996;-80
2021/12/17 06:31:15;;;;;;;;;;;;;;;8.14;94.30;103199.44;4956829;27;20273;-80
2021/12/17 06:33:40;;;;;;;;;;;;;;;8.13;94.06;103196.88;4936501;27;20864;-84
2021/12/17 06:36:05;;;;;;;;;;;;;;;8.13;94.24;103208.28;4958713;27;19957;-81
2021/12/17 06:38:31;;;;;;;;;;;;;;;8.13;94.01;103207.44;4939277;27;21174;-81
2021/12/17 06:40:58;;;;;;;;;;;;;;;8.20;93.97;103209.75;4936909;28;19915;-81
2021/12/17 06:43:29;;;;;;;;;;;;;;;8.18;94.04;103216.88;4945165;28;19963;-81
2021/12/17 06:46:02;;;;;;;;;;;;;;;8.18;93.52;103211.59;4932043;27;19919;-81
2021/12/17 06:48:31;;;;;;;;;;;;;;;8.20;93.73;103207.13;4945749;27;19907;-82
2021/12/17 07:07:33;;;;;;;;;;;;;;;8.25;93.82;103213.06;4962570;27;19989;-80
2021/12/17 07:17:50;;;;;;;;;;;;;;;8.18;93.46;103206.31;4947906;27;20149;-81
2021/12/17 07:40:29;;;;;;;;;;;;;;;8.30;93.55;103209.41;4924720;27;20409;-82
2021/12/17 07:42:55;;;;;;;;;;;;;;;8.24;93.64;103216.63;4913466;28;20029;-83
2021/12/17 07:45:20;;;;;;;;;;;;;;;8.24;94.10;103221.91;4916557;27;19964;-84
2021/12/17 07:47:45;;;;;;;;;;;;;;;8.24;94.10;103223.69;4919850;28;20145;-84
2021/12/17 07:50:11;;;;;;;;;;;;;;;8.28;93.96;103227.94;4928159;27;19985;-83
2021/12/17 07:52:36;;;;;;;;;;;;;;;8.18;94.16;103230.06;4924496;28;20005;-83
2021/12/17 07:55:01;;;;;;;;;;;;;;;8.19;94.75;103239.72;4929036;28;20017;-83
2021/12/17 07:57:26;;;;;;;;;;;;;;;8.22;94.92;103244.84;4917183;28;19908;-84
2021/12/17 07:59:52;;;;;;;;;;;;;;;8.20;95.31;103246.69;4904211;28;20257;-83
2021/12/17 08:02:17;;;;;;;;;;;;;;;8.21;95.41;103258.09;4936843;28;19907;-82
2021/12/17 08:04:42;;;;;;;;;;;;;;;8.27;95.46;103249.09;4929993;28;20915;-84
2021/12/17 08:07:08;;;;;;;;;;;;;;;8.29;95.00;103247.25;4923638;28;20848;-85
2021/12/17 08:09:33;;;;;;;;;;;;;;;8.27;95.05;103244.66;4932512;28;20803;-85
2021/12/17 08:11:59;;;;;;;;;;;;;;;8.25;94.90;103244.72;4916264;28;20029;-82
2021/12/17 08:14:26;;;;;;;;;;;;;;;8.27;94.89;103251.72;4934519;28;19991;-82
2021/12/17 08:16:59;;;;;;;;;;;;;;;8.29;95.58;103247.25;4928639;28;20720;-83
2021/12/17 08:29:56;;;;;;;;;;;;;;;8.37;95.14;103263.63;4960183;28;19931;-84
2021/12/17 08:32:22;;;;;;;;;;;;;;;8.32;94.90;103262.94;4932718;28;20280;-85
2021/12/17 08:34:47;;;;;;;;;;;;;;;8.36;95.38;103262.78;4948419;28;19908;-85
2021/12/17 08:37:13;;;;;;;;;;;;;;;8.39;95.07;103261.78;4944278;28;19961;-85
2021/12/17 08:39:38;;;;;;;;;;;;;;;8.39;95.46;103267.94;4940537;28;20357;-84
2021/12/17 08:42:04;;;;;;;;;;;;;;;8.38;94.78;103260.94;4940376;27;19915;-85
2021/12/17 08:44:29;;;;;;;;;;;;;;;8.41;95.23;103262.59;4942588;28;20491;-84
2021/12/17 08:46:54;;;;;;;;;;;;;;;8.44;95.48;103273.03;4936641;28;20599;-84
2021/12/17 08:49:20;;;;;;;;;;;;;;;8.45;95.22;103269.50;4944921;28;19963;-85
2021/12/17 08:51:45;;;;;;;;;;;;;;;8.44;94.98;103280.94;4941619;28;20000;-84
2021/12/17 08:54:10;;;;;;;;;;;;;;;8.52;95.40;103278.06;4944887;28;19908;-84
2021/12/17 08:56:36;;;;;;;;;;;;;;;8.54;95.29;103278.84;4942448;27;20228;-84
2021/12/17 08:59:05;;;;;;;;;;;;;;;8.52;95.11;103276.25;4945003;27;20028;-85
2021/12/17 09:01:31;;;;;;;;;;;;;;;8.52;94.85;103283.31;4955080;27;19916;-84
2021/12/17 09:03:56;;;;;;;;;;;;;;;8.56;95.29;103280.50;4964432;27;20403;-86
2021/12/17 09:06:26;;;;;;;;;;;;;;;8.57;94.95;103276.06;4949073;27;20109;-86
2021/12/17 09:08:54;;;;;;;;;;;;;;;8.46;94.68;103281.78;4961513;27;19908;-84
2021/12/17 09:11:21;;;;;;;;;;;;;;;8.50;95.09;103275.47;4954871;27;20619;-84
2021/12/17 09:13:46;;;;;;;;;;;;;;;8.43;95.23;103279.22;4957458;27;19912;-83
2021/12/17 09:16:12;;;;;;;;;;;;;;;8.54;95.61;103287.59;4936837;28;19956;-82
2021/12/17 09:18:37;;;;;;;;;;;;;;;8.54;95.39;103279.69;4933807;28;20008;-82
2021/12/17 09:21:03;;;;;;;;;;;;;;;8.66;95.69;103288.91;4942921;28;20067;-83
2021/12/17 09:23:28;;;;;;;;;;;;;;;8.68;94.82;103283.56;4944075;28;20807;-83
2021/12/17 09:25:53;;;;;;;;;;;;;;;8.70;94.86;103281.72;4949503;28;19910;-84
2021/12/17 09:28:18;;;;;;;;;;;;;;;8.72;94.62;103283.38;4944616;28;19989;-84
2021/12/17 09:30:44;;;;;;;;;;;;;;;8.75;94.03;103285.03;4969886;27;20106;-83
2021/12/17 09:33:09;;;;;;;;;;;;;;;8.66;94.32;103291.56;4961095;27;20352;-84
2021/12/17 09:35:34;;;;;;;;;;;;;;;8.64;94.71;103297.81;4944116;27;20213;-82
2021/12/17 09:37:59;;;;;;;;;;;;;;;8.63;94.95;103301.34;4952010;28;20379;-83
2021/12/17 09:40:25;;;;;;;;;;;;;;;8.62;95.31;103304.94;4954275;27;19919;-83
2021/12/17 09:42:50;;;;;;;;;;;;;;;8.66;95.02;103311.78;4963058;27;20153;-82
2021/12/17 09:45:16;;;;;;;;;;;;;;;8.71;95.23;103312.47;4944686;27;20553;-82
2021/12/17 09:47:41;;;;;;;;;;;;;;;8.70;95.08;103316.91;4971586;27;20233;-82
2021/12/17 09:50:07;;;;;;;;;;;;;;;8.71;94.84;103307.19;4971474;27;19969;-82
2021/12/17 09:52:32;;;;;;;;;;;;;;;8.74;94.86;103309.72;4966130;28;20380;-81
2021/12/17 09:54:58;;;;;;;;;;;;;;;8.71;95.39;103307.19;4939656;28;20236;-82
2021/12/17 09:57:25;;;;;;;;;;;;;;;8.74;95.14;103305.31;4952361;27;19904;-82
2021/12/17 09:59:51;;;;;;;;;;;;;;;8.75;94.96;103308.78;4966238;28;20209;-81
2021/12/17 10:02:16;;;;;;;;;;;;;;;8.74;94.65;103312.34;4982507;27;19919;-82
2021/12/17 10:04:45;;;;;;;;;;;;;;;8.70;94.84;103309.00;4959637;28;20229;-82
2021/12/17 10:07:18;;;;;;;;;;;;;;;8.72;95.43;103307.13;4939973;28;20027;-81
2021/12/17 10:09:47;;;;;;;;;;;;;;;8.73;95.56;103302.72;4954365;28;19912;-82
2021/12/17 10:12:12;;;;;;;;;;;;;;;8.80;95.00;103306.84;4964713;27;19904;-82
2021/12/17 10:14:41;;;;;;;;;;;;;;;8.82;95.30;103306.78;4969870;27;19919;-83
2021/12/17 10:17:07;;;;;;;;;;;;;;;8.82;94.84;103310.25;4939854;28;20480;-84
2021/12/17 10:19:45;;;;;;;;;;;;;;;8.82;95.07;103297.06;4917912;28;20398;-83
2021/12/17 10:22:11;;;;;;;;;;;;;;;8.78;94.96;103300.75;4935844;28;19998;-84
2021/12/17 10:24:38;;;;;;;;;;;;;;;8.81;95.67;103307.69;4935719;28;20028;-84
2021/12/17 10:27:25;;;;;;;;;;;;;;;8.88;95.29;103303.88;4917158;28;20059;-84
2021/12/17 10:29:50;;;;;;;;;;;;;;;8.93;94.85;103299.28;4918630;28;20629;-84
2021/12/17 10:32:16;;;;;;;;;;;;;;;8.99;94.63;103301.66;4955592;28;19912;-82
2021/12/17 10:35:01;;;;;;;;;;;;;;;8.93;94.21;103300.13;4982237;28;19912;-83
2021/12/17 10:37:33;;;;;;;;;;;;;;;8.93;94.32;103292.19;4934112;28;19900;-84
2021/12/17 10:39:58;;;;;;;;;;;;;;;8.91;93.51;103291.41;4923999;28;20027;-83
2021/12/17 10:42:32;;;;;;;;;;;;;;;8.93;93.99;103283.44;4930953;27;20375;-83
2021/12/17 10:45:11;;;;;;;;;;;;;;;8.91;93.74;103290.53;4922293;28;19972;-83
2021/12/17 10:47:37;;;;;;;;;;;;;;;9.00;93.87;103295.47;4929101;28;20344;-84
2021/12/17 10:50:03;;;;;;;;;;;;;;;9.07;93.54;103290.78;4951321;27;19908;-84
2021/12/17 10:52:36;;;;;;;;;;;;;;;9.02;93.64;103293.59;4944215;28;19908;-84
2021/12/17 10:55:13;;;;;;;;;;;;;;;9.02;93.34;103293.59;4944858;27;20303;-83
2021/12/17 10:57:38;;;;;;;;;;;;;;;9.11;93.36;103287.09;4927260;28;20051;-83
2021/12/17 11:00:05;;;;;;;;;;;;;;;9.11;93.02;103271.25;4927352;27;19908;-85
2021/12/17 11:02:33;;;;;;;;;;;;;;;9.16;92.32;103281.59;4948375;28;20293;-83
2021/12/17 11:04:58;;;;;;;;;;;;;;;9.10;92.88;103288.00;4941144;27;19920;-82
2021/12/17 11:07:23;;;;;;;;;;;;;;;9.19;92.70;103290.25;4941534;27;20352;-84
2021/12/17 11:09:50;;;;;;;;;;;;;;;9.06;92.23;103289.91;4916681;28;19904;-82
2021/12/17 11:12:26;;;;;;;;;;;;;;;9.03;92.81;103284.75;4916888;27;20496;-82
2021/12/17 11:14:52;;;;;;;;;;;;;;;9.06;92.53;103284.63;4919674;28;20561;-82
2021/12/17 11:17:18;;;;;;;;;;;;;;;9.11;92.82;103276.53;4937498;27;19907;-82
2021/12/17 11:19:43;;;;;;;;;;;;;;;9.11;92.72;103284.44;4918810;28;19904;-81
2021/12/17 11:22:08;;;;;;;;;;;;;;;9.16;92.49;103284.25;4929619;27;19914;-84
2021/12/17 11:24:34;;;;;;;;;;;;;;;9.16;92.73;103289.53;4936695;27;20071;-82
2021/12/17 11:27:00;;;;;;;;;;;;;;;9.12;92.35;103280.88;4943209;27;20402;-82
2021/12/17 11:29:25;;;;;;;;;;;;;;;9.13;92.84;103279.09;4935895;27;19914;-82
2021/12/17 11:31:51;;;;;;;;;;;;;;;9.05;93.01;103279.41;4910197;28;20119;-81
2021/12/17 11:34:19;;;;;;;;;;;;;;;9.06;93.11;103275.84;4918993;28;20111;-82
2021/12/17 11:36:45;;;;;;;;;;;;;;;9.06;92.96;103273.22;4971290;28;19923;-91
2021/12/17 11:39:21;;;;;;;;;;;;;;;9.09;93.33;103263.38;4998652;28;19954;-91
2021/12/17 11:41:56;;;;;;;;;;;;;;;9.07;93.57;103267.00;5059047;28;19918;-92
2021/12/17 11:44:28;;;;;;;;;;;;;;;9.09;92.68;103268.66;4983145;28;20096;-89
2021/12/17 11:47:04;;;;;;;;;;;;;;;9.12;92.88;103280.88;4973645;28;19943;-87
2021/12/17 11:49:35;;;;;;;;;;;;;;;9.13;93.27;103277.31;4963351;28;19957;-84
2021/12/17 11:52:00;;;;;;;;;;;;;;;9.18;93.16;103288.56;4901864;28;19912;-80
2021/12/17 11:54:32;;;;;;;;;;;;;;;9.17;93.11;103281.53;4898683;28;19927;-82
2021/12/17 11:57:05;;;;;;;;;;;;;;;9.24;92.93;103283.00;4918287;28;20262;-81
2021/12/17 11:59:35;;;;;;;;;;;;;;;9.36;93.24;103273.66;4919774;28;20382;-82
2021/12/17 12:02:20;;;;;;;;;;;;;;;9.37;92.39;103272.75;4899886;28;19900;-83
2021/12/17 12:04:45;;;;;;;;;;;;;;;9.38;92.50;103271.00;4909827;28;20351;-83
2021/12/17 12:07:17;;;;;;;;;;;;;;;9.39;92.28;103267.41;4919569;28;20752;-82
2021/12/17 12:09:58;;;;;;;;;;;;;;;9.40;92.08;103261.19;4897802;28;20331;-81
2021/12/17 12:12:24;;;;;;;;;;;;;;;9.38;92.64;103263.06;4907025;28;21014;-81
2021/12/17 12:14:49;;;;;;;;;;;;;;;9.39;92.22;103262.13;4895301;28;19912;-81
2021/12/17 12:17:27;;;;;;;;;;;;;;;9.37;92.38;103267.47;4904155;28;19912;-82
2021/12/17 12:19:52;;;;;;;;;;;;;;;9.40;92.21;103261.19;4900876;28;19991;-82
2021/12/17 12:22:30;;;;;;;;;;;;;;;9.35;92.28;103258.75;4921117;28;20452;-83
2021/12/17 12:25:19;;;;;;;;;;;;;;;9.31;92.72;103251.00;4925255;28;20695;-84
2021/12/17 12:27:45;;;;;;;;;;;;;;;9.31;92.61;103254.53;4906231;28;20635;-81
2021/12/17 12:30:10;;;;;;;;;;;;;;;9.37;92.04;103258.69;4941370;28;19919;-82
2021/12/17 12:32:35;;;;;;;;;;;;;;;9.38;92.05;103257.78;4941860;28;19933;-82
2021/12/17 12:35:05;;;;;;;;;;;;;;;9.41;91.85;103263.78;4906517;28;19912;-80
2021/12/17 12:37:30;;;;;;;;;;;;;;;9.36;91.67;103259.59;4917362;28;20636;-81
2021/12/17 12:39:58;;;;;;;;;;;;;;;9.30;91.77;103262.53;4915955;28;19919;-81
2021/12/17 12:42:24;;;;;;;;;;;;;;;9.31;92.42;103254.53;4928658;28;19915;-82
2021/12/17 12:44:49;;;;;;;;;;;;;;;9.37;92.29;103253.41;4934653;28;20396;-82
2021/12/17 12:47:14;;;;;;;;;;;;;;;9.30;92.05;103246.69;4937108;28;19931;-81
2021/12/17 12:49:45;;;;;;;;;;;;;;;9.23;92.10;103249.56;4959056;28;20361;-81
2021/12/17 12:52:20;;;;;;;;;;;;;;;9.27;92.74;103250.31;4951314;28;20766;-81
2021/12/17 12:54:48;;;;;;;;;;;;;;;9.26;91.98;103254.75;4942641;28;20020;-80
2021/12/17 12:57:13;;;;;;;;;;;;;;;9.27;92.10;103245.03;4920391;28;19916;-83
2021/12/17 12:59:38;;;;;;;;;;;;;;;9.34;91.55;103241.19;4928600;28;19912;-82
2021/12/17 13:02:03;;;;;;;;;;;;;;;9.38;91.31;103252.50;4942849;28;19904;-83
2021/12/17 13:04:31;;;;;;;;;;;;;;;9.33;90.87;103251.81;4931510;28;19928;-82
2021/12/17 13:06:57;;;;;;;;;;;;;;;9.42;91.17;103252.28;4927986;28;19908;-83
2021/12/17 13:09:29;;;;;;;;;;;;;;;9.50;90.47;103259.84;4925639;28;19938;-82
2021/12/17 13:11:54;;;;;;;;;;;;;;;9.49;90.57;103250.22;4909522;28;20577;-82
2021/12/17 13:14:23;;;;;;;;;;;;;;;9.52;90.22;103257.16;4930290;28;19965;-84
2021/12/17 13:17:06;;;;;;;;;;;;;;;9.51;90.11;103248.38;4937983;28;20285;-82
2021/12/17 13:22:26;;;;;;;;;;;;;;;9.46;89.51;103245.06;4936056;28;19911;-82
2021/12/17 13:24:51;;;;;;;;;;;;;;;9.40;88.43;103245.34;4943179;28;19915;-83
2021/12/17 13:27:16;;;;;;;;;;;;;;;9.47;87.26;103236.22;4940927;28;20224;-82
2021/12/17 13:29:43;;;;;;;;;;;;;;;9.48;87.29;103231.81;4925064;28;20512;-82
2021/12/17 13:32:11;;;;;;;;;;;;;;;9.59;86.27;103225.09;4930748;28;19908;-81
2021/12/17 13:34:40;;;;;;;;;;;;;;;9.57;84.98;103234.03;4956323;28;19904;-81
2021/12/17 13:37:06;;;;;;;;;;;;;;;9.44;86.16;103239.00;4936144;28;20064;-81
2021/12/17 13:39:36;;;;;;;;;;;;;;;9.43;86.39;103235.50;4949259;28;19974;-81
2021/12/17 13:42:02;;;;;;;;;;;;;;;9.36;86.67;103225.25;4923109;28;20443;-82
2021/12/17 13:44:28;;;;;;;;;;;;;;;9.41;87.12;103228.56;4911782;28;19931;-81
2021/12/17 13:47:05;;;;;;;;;;;;;;;9.47;86.54;103225.63;4953968;28;20700;-83
2021/12/17 13:49:30;;;;;;;;;;;;;;;9.57;85.90;103226.09;4925790;28;19976;-82
2021/12/17 13:51:55;;;;;;;;;;;;;;;9.40;86.02;103217.13;4929481;28;20909;-81
2021/12/17 13:54:21;;;;;;;;;;;;;;;9.43;86.52;103214.38;4917284;28;19912;-81
2021/12/17 13:56:54;;;;;;;;;;;;;;;9.43;85.87;103213.47;4939110;28;20009;-81
2021/12/17 13:59:27;;;;;;;;;;;;;;;9.38;85.61;103216.34;4929448;28;19924;-82
2021/12/17 14:01:52;;;;;;;;;;;;;;;9.36;85.83;103215.53;4920875;28;20607;-81
2021/12/17 14:04:17;;;;;;;;;;;;;;;9.36;85.72;103214.69;4915563;28;19931;-82
2021/12/17 14:06:51;;;;;;;;;;;;;;;9.35;85.90;103211.19;4928932;28;19908;-81
2021/12/17 14:09:17;;;;;;;;;;;;;;;9.32;86.29;103213.09;4927183;28;19908;-82
2021/12/17 14:11:42;;;;;;;;;;;;;;;9.30;86.00;103222.91;4934447;28;19956;-80
2021/12/17 14:14:23;;;;;;;;;;;;;;;9.26;86.18;103217.75;4925685;28;20449;-81
2021/12/17 14:16:55;;;;;;;;;;;;;;;9.30;85.10;103212.31;4942063;28;20461;-81
2021/12/17 14:19:34;;;;;;;;;;;;;;;9.27;84.53;103213.31;4933073;28;20683;-81
2021/12/17 14:21:59;;;;;;;;;;;;;;;9.22;85.13;103210.88;4927005;28;20010;-82
2021/12/17 14:24:30;;;;;;;;;;;;;;;9.23;84.75;103215.22;4914964;28;19972;-81
2021/12/17 14:26:56;;;;;;;;;;;;;;;9.18;85.48;103217.22;4912470;28;19908;-81
2021/12/17 14:29:22;;;;;;;;;;;;;;;9.17;85.59;103225.22;4908724;28;19950;-80
2021/12/17 14:31:47;;;;;;;;;;;;;;;9.17;85.35;103217.28;4908810;28;20242;-83
2021/12/17 14:34:16;;;;;;;;;;;;;;;9.13;85.78;103223.63;4890540;28;19919;-82
2021/12/17 14:36:42;;;;;;;;;;;;;;;9.18;86.13;103222.50;4898096;28;19981;-82
2021/12/17 14:39:15;;;;;;;;;;;;;;;9.19;86.06;103232.13;4927200;28;20344;-81
2021/12/17 14:41:54;;;;;;;;;;;;;;;9.10;86.27;103232.53;4916150;28;20274;-83
2021/12/17 14:46:58;;;;;;;;;;;;;;;9.10;84.77;103243.09;4931980;28;20930;-82
2021/12/17 15:00:27;;;;;;;;;;;;;;;8.94;83.02;103249.03;4909090;28;19915;-80
2021/12/17 15:02:58;;;;;;;;;;;;;;;8.90;83.15;103255.38;4928859;28;19912;-78
2021/12/17 15:05:24;;;;;;;;;;;;;;;8.87;82.95;103263.41;4902412;28;19926;-78
2021/12/17 15:07:50;;;;;;;;;;;;;;;8.88;83.28;103265.16;4892612;28;19911;-75
2021/12/17 15:10:15;;;;;;;;;;;;;;;8.86;83.05;103260.84;4920221;28;19939;-79
2021/12/17 15:12:40;;;;;;;;;;;;;;;8.83;83.00;103261.81;4901579;28;19952;-79
2021/12/17 15:15:10;;;;;;;;;;;;;;;8.79;83.13;103254.09;4897699;28;19916;-80
2021/12/17 15:17:35;;;;;;;;;;;;;;;8.92;81.63;103256.13;4908128;28;19968;-80
2021/12/17 15:20:00;;;;;;;;;;;;;;;8.84;82.55;103252.09;4908497;28;20121;-79
2021/12/17 15:22:27;;;;;;;;;;;;;;;8.75;82.75;103258.63;4909679;28;20515;-80
2021/12/17 15:24:52;;;;;;;;;;;;;;;8.73;83.03;103255.22;4911079;28;19926;-80
2021/12/17 15:27:18;;;;;;;;;;;;;;;8.71;82.46;103251.75;4891916;28;19912;-79
2021/12/17 15:29:43;;;;;;;;;;;;;;;8.62;83.13;103252.16;4906803;28;19919;-80
2021/12/17 15:32:08;;;;;;;;;;;;;;;8.63;83.07;103251.22;4910779;28;19908;-79
2021/12/17 15:34:33;;;;;;;;;;;;;;;8.61;82.47;103260.97;4895030;28;20760;-81
2021/12/17 15:36:59;;;;;;;;;;;;;;;8.56;83.05;103263.81;4913726;28;20264;-80
2021/12/17 15:39:26;;;;;;;;;;;;;;;8.55;82.80;103257.66;4907383;28;20406;-81
2021/12/17 15:41:51;;;;;;;;;;;;;;;8.54;82.60;103249.81;4898849;28;19904;-80
2021/12/17 15:44:16;;;;;;;;;;;;;;;8.56;82.50;103264.66;4902091;28;19935;-79
2021/12/17 15:46:42;;;;;;;;;;;;;;;8.47;83.46;103270.28;4932099;28;19923;-79
2021/12/17 15:49:07;;;;;;;;;;;;;;;8.48;83.07;103266.75;4909514;28;20038;-81